sensor_id;sensor_type;location;lat;lon;timestamp;P1;durP1;ratioP1;P2;durP2;ratioP2
71127;SDS011;59249;59.736;30.568;2023-07-13T00:01:39;7.15;;;2.83;;
71127;SDS011;59249;59.736;30.568;2023-07-13T00:04:10;8.43;;;2.50;;
71127;SDS011;59249;59.736;30.568;2023-07-13T00:06:38;10.48;;;2.55;;
71127;SDS011;59249;59.736;30.568;2023-07-13T00:09:11;7.15;;;2.50;;
71127;SDS011;59249;59.736;30.568;2023-07-13T00:11:44;7.65;;;2.42;;
71127;SDS011;59249;59.736;30.568;2023-07-13T00:14:16;6.00;;;2.20;;
71127;SDS011;59249;59.736;30.568;2023-07-13T00:16:45;8.73;;;2.37;;
71127;SDS011;59249;59.736;30.568;2023-07-13T00:19:14;6.25;;;2.30;;
71127;SDS011;59249;59.736;30.568;2023-07-13T00:21:43;6.32;;;2.33;;
71127;SDS011;59249;59.736;30.568;2023-07-13T00:24:12;6.30;;;1.92;;
71127;SDS011;59249;59.736;30.568;2023-07-13T00:26:51;5.38;;;2.33;;
71127;SDS011;59249;59.736;30.568;2023-07-13T00:29:21;7.77;;;2.10;;
71127;SDS011;59249;59.736;30.568;2023-07-13T00:31:50;6.88;;;2.17;;
71127;SDS011;59249;59.736;30.568;2023-07-13T00:34:21;7.10;;;2.35;;
71127;SDS011;59249;59.736;30.568;2023-07-13T00:36:50;4.75;;;1.90;;
71127;SDS011;59249;59.736;30.568;2023-07-13T00:39:19;7.60;;;2.47;;
71127;SDS011;59249;59.736;30.568;2023-07-13T00:41:52;5.10;;;2.23;;
71127;SDS011;59249;59.736;30.568;2023-07-13T00:44:22;5.65;;;2.42;;
71127;SDS011;59249;59.736;30.568;2023-07-13T00:46:51;6.32;;;2.60;;
71127;SDS011;59249;59.736;30.568;2023-07-13T00:49:20;6.47;;;2.60;;
71127;SDS011;59249;59.736;30.568;2023-07-13T00:51:53;6.85;;;2.42;;
71127;SDS011;59249;59.736;30.568;2023-07-13T00:54:28;5.90;;;2.27;;
71127;SDS011;59249;59.736;30.568;2023-07-13T00:57:02;6.07;;;2.30;;
71127;SDS011;59249;59.736;30.568;2023-07-13T00:59:41;6.38;;;2.15;;
71127;SDS011;59249;59.736;30.568;2023-07-13T01:02:21;9.25;;;2.25;;
71127;SDS011;59249;59.736;30.568;2023-07-13T01:04:50;6.90;;;2.17;;
71127;SDS011;59249;59.736;30.568;2023-07-13T01:07:20;5.17;;;1.87;;
71127;SDS011;59249;59.736;30.568;2023-07-13T01:09:48;5.82;;;1.80;;
71127;SDS011;59249;59.736;30.568;2023-07-13T01:12:18;4.95;;;1.80;;
71127;SDS011;59249;59.736;30.568;2023-07-13T01:14:48;5.43;;;1.95;;
71127;SDS011;59249;59.736;30.568;2023-07-13T01:17:25;6.05;;;1.80;;
71127;SDS011;59249;59.736;30.568;2023-07-13T01:19:56;5.53;;;2.27;;
71127;SDS011;59249;59.736;30.568;2023-07-13T01:22:26;6.97;;;2.13;;
71127;SDS011;59249;59.736;30.568;2023-07-13T01:24:56;6.88;;;2.28;;
71127;SDS011;59249;59.736;30.568;2023-07-13T01:27:25;5.32;;;1.90;;
71127;SDS011;59249;59.736;30.568;2023-07-13T01:29:54;5.05;;;1.63;;
71127;SDS011;59249;59.736;30.568;2023-07-13T01:32:31;5.80;;;1.97;;
71127;SDS011;59249;59.736;30.568;2023-07-13T01:35:01;5.72;;;1.95;;
71127;SDS011;59249;59.736;30.568;2023-07-13T01:37:31;5.70;;;1.88;;
71127;SDS011;59249;59.736;30.568;2023-07-13T01:40:03;5.78;;;2.78;;
71127;SDS011;59249;59.736;30.568;2023-07-13T01:42:35;8.43;;;2.28;;
71127;SDS011;59249;59.736;30.568;2023-07-13T01:45:06;6.07;;;2.40;;
71127;SDS011;59249;59.736;30.568;2023-07-13T01:47:35;6.32;;;2.08;;
71127;SDS011;59249;59.736;30.568;2023-07-13T01:50:06;5.15;;;2.20;;
71127;SDS011;59249;59.736;30.568;2023-07-13T01:52:37;7.32;;;2.55;;
71127;SDS011;59249;59.736;30.568;2023-07-13T01:55:06;7.82;;;2.30;;
71127;SDS011;59249;59.736;30.568;2023-07-13T01:57:35;4.90;;;2.10;;
71127;SDS011;59249;59.736;30.568;2023-07-13T02:00:05;7.18;;;3.47;;
71127;SDS011;59249;59.736;30.568;2023-07-13T02:02:42;17.40;;;13.63;;
71127;SDS011;59249;59.736;30.568;2023-07-13T02:05:12;21.95;;;18.27;;
71127;SDS011;59249;59.736;30.568;2023-07-13T02:07:44;36.58;;;33.03;;
71127;SDS011;59249;59.736;30.568;2023-07-13T02:10:14;23.93;;;21.20;;
71127;SDS011;59249;59.736;30.568;2023-07-13T02:12:45;19.55;;;17.15;;
71127;SDS011;59249;59.736;30.568;2023-07-13T02:15:13;15.82;;;10.70;;
71127;SDS011;59249;59.736;30.568;2023-07-13T02:17:46;15.07;;;8.70;;
71127;SDS011;59249;59.736;30.568;2023-07-13T02:20:35;12.95;;;8.00;;
71127;SDS011;59249;59.736;30.568;2023-07-13T02:23:05;7.47;;;3.20;;
71127;SDS011;59249;59.736;30.568;2023-07-13T02:25:35;8.18;;;3.92;;
71127;SDS011;59249;59.736;30.568;2023-07-13T02:28:04;6.70;;;3.30;;
71127;SDS011;59249;59.736;30.568;2023-07-13T02:30:33;6.22;;;2.85;;
71127;SDS011;59249;59.736;30.568;2023-07-13T02:33:02;6.85;;;2.80;;
71127;SDS011;59249;59.736;30.568;2023-07-13T02:35:31;8.67;;;2.80;;
71127;SDS011;59249;59.736;30.568;2023-07-13T02:38:00;7.55;;;2.20;;
71127;SDS011;59249;59.736;30.568;2023-07-13T02:40:32;4.35;;;1.98;;
71127;SDS011;59249;59.736;30.568;2023-07-13T02:43:02;6.80;;;1.95;;
71127;SDS011;59249;59.736;30.568;2023-07-13T02:45:31;4.93;;;1.75;;
71127;SDS011;59249;59.736;30.568;2023-07-13T02:48:00;6.13;;;1.77;;
71127;SDS011;59249;59.736;30.568;2023-07-13T02:50:29;6.28;;;2.05;;
71127;SDS011;59249;59.736;30.568;2023-07-13T02:52:58;5.95;;;2.33;;
71127;SDS011;59249;59.736;30.568;2023-07-13T02:55:27;6.18;;;1.88;;
71127;SDS011;59249;59.736;30.568;2023-07-13T02:57:57;5.07;;;1.73;;
71127;SDS011;59249;59.736;30.568;2023-07-13T03:00:26;5.87;;;1.80;;
71127;SDS011;59249;59.736;30.568;2023-07-13T03:02:54;6.18;;;1.90;;
71127;SDS011;59249;59.736;30.568;2023-07-13T03:05:25;4.18;;;1.48;;
71127;SDS011;59249;59.736;30.568;2023-07-13T03:07:55;5.93;;;2.10;;
71127;SDS011;59249;59.736;30.568;2023-07-13T03:10:24;6.03;;;2.05;;
71127;SDS011;59249;59.736;30.568;2023-07-13T03:12:53;7.00;;;2.40;;
71127;SDS011;59249;59.736;30.568;2023-07-13T03:15:26;5.70;;;2.42;;
71127;SDS011;59249;59.736;30.568;2023-07-13T03:17:57;7.82;;;2.90;;
71127;SDS011;59249;59.736;30.568;2023-07-13T03:20:27;11.18;;;2.83;;
71127;SDS011;59249;59.736;30.568;2023-07-13T03:22:56;14.77;;;3.13;;
71127;SDS011;59249;59.736;30.568;2023-07-13T03:25:26;20.83;;;3.63;;
71127;SDS011;59249;59.736;30.568;2023-07-13T03:27:55;21.20;;;5.40;;
71127;SDS011;59249;59.736;30.568;2023-07-13T03:30:24;10.13;;;4.78;;
71127;SDS011;59249;59.736;30.568;2023-07-13T03:32:54;12.88;;;5.05;;
71127;SDS011;59249;59.736;30.568;2023-07-13T03:35:24;10.27;;;5.35;;
71127;SDS011;59249;59.736;30.568;2023-07-13T03:37:53;9.87;;;5.33;;
71127;SDS011;59249;59.736;30.568;2023-07-13T03:40:22;10.35;;;5.40;;
71127;SDS011;59249;59.736;30.568;2023-07-13T03:42:52;11.55;;;5.90;;
71127;SDS011;59249;59.736;30.568;2023-07-13T03:45:22;10.82;;;4.90;;
71127;SDS011;59249;59.736;30.568;2023-07-13T03:47:50;15.65;;;6.15;;
71127;SDS011;59249;59.736;30.568;2023-07-13T03:50:21;16.23;;;6.50;;
71127;SDS011;59249;59.736;30.568;2023-07-13T03:52:50;10.38;;;5.05;;
71127;SDS011;59249;59.736;30.568;2023-07-13T03:55:19;13.18;;;5.50;;
71127;SDS011;59249;59.736;30.568;2023-07-13T03:57:52;9.10;;;5.10;;
71127;SDS011;59249;59.736;30.568;2023-07-13T04:00:26;14.13;;;6.18;;
71127;SDS011;59249;59.736;30.568;2023-07-13T04:02:55;12.47;;;4.80;;
71127;SDS011;59249;59.736;30.568;2023-07-13T04:05:25;12.65;;;5.55;;
71127;SDS011;59249;59.736;30.568;2023-07-13T04:07:54;10.70;;;5.88;;
71127;SDS011;59249;59.736;30.568;2023-07-13T04:10:24;9.07;;;5.00;;
71127;SDS011;59249;59.736;30.568;2023-07-13T04:12:53;7.78;;;4.00;;
71127;SDS011;59249;59.736;30.568;2023-07-13T04:15:22;9.83;;;5.60;;
71127;SDS011;59249;59.736;30.568;2023-07-13T04:17:50;11.13;;;5.93;;
71127;SDS011;59249;59.736;30.568;2023-07-13T04:20:19;9.68;;;6.53;;
71127;SDS011;59249;59.736;30.568;2023-07-13T04:22:49;12.80;;;6.40;;
71127;SDS011;59249;59.736;30.568;2023-07-13T04:25:20;13.27;;;4.97;;
71127;SDS011;59249;59.736;30.568;2023-07-13T04:27:49;9.80;;;4.67;;
71127;SDS011;59249;59.736;30.568;2023-07-13T04:30:18;9.88;;;3.88;;
71127;SDS011;59249;59.736;30.568;2023-07-13T04:32:49;7.95;;;3.25;;
71127;SDS011;59249;59.736;30.568;2023-07-13T04:35:19;5.32;;;2.33;;
71127;SDS011;59249;59.736;30.568;2023-07-13T04:37:50;5.60;;;2.75;;
71127;SDS011;59249;59.736;30.568;2023-07-13T04:40:19;7.37;;;3.10;;
71127;SDS011;59249;59.736;30.568;2023-07-13T04:42:49;9.18;;;3.70;;
71127;SDS011;59249;59.736;30.568;2023-07-13T04:45:17;8.65;;;3.13;;
71127;SDS011;59249;59.736;30.568;2023-07-13T04:47:46;6.25;;;3.00;;
71127;SDS011;59249;59.736;30.568;2023-07-13T04:50:15;5.95;;;2.00;;
71127;SDS011;59249;59.736;30.568;2023-07-13T04:52:47;5.57;;;2.10;;
71127;SDS011;59249;59.736;30.568;2023-07-13T04:55:19;5.50;;;2.03;;
71127;SDS011;59249;59.736;30.568;2023-07-13T04:57:48;4.38;;;1.85;;
71127;SDS011;59249;59.736;30.568;2023-07-13T05:00:17;4.85;;;2.00;;
71127;SDS011;59249;59.736;30.568;2023-07-13T05:02:46;7.70;;;3.97;;
71127;SDS011;59249;59.736;30.568;2023-07-13T05:05:15;8.50;;;3.33;;
71127;SDS011;59249;59.736;30.568;2023-07-13T05:07:44;14.65;;;7.18;;
71127;SDS011;59249;59.736;30.568;2023-07-13T05:10:16;13.25;;;6.45;;
71127;SDS011;59249;59.736;30.568;2023-07-13T05:12:46;14.60;;;6.55;;
71127;SDS011;59249;59.736;30.568;2023-07-13T05:15:15;11.93;;;5.20;;
71127;SDS011;59249;59.736;30.568;2023-07-13T05:17:47;10.10;;;4.77;;
71127;SDS011;59249;59.736;30.568;2023-07-13T05:20:17;13.85;;;6.57;;
71127;SDS011;59249;59.736;30.568;2023-07-13T05:22:46;9.77;;;3.70;;
71127;SDS011;59249;59.736;30.568;2023-07-13T05:25:17;11.65;;;4.07;;
71127;SDS011;59249;59.736;30.568;2023-07-13T05:27:46;6.38;;;1.98;;
71127;SDS011;59249;59.736;30.568;2023-07-13T05:30:15;5.20;;;1.50;;
71127;SDS011;59249;59.736;30.568;2023-07-13T05:32:44;4.72;;;1.38;;
71127;SDS011;59249;59.736;30.568;2023-07-13T05:35:39;5.47;;;1.23;;
71127;SDS011;59249;59.736;30.568;2023-07-13T05:38:07;5.10;;;1.33;;
71127;SDS011;59249;59.736;30.568;2023-07-13T05:40:38;5.20;;;1.67;;
71127;SDS011;59249;59.736;30.568;2023-07-13T05:43:06;5.63;;;2.00;;
71127;SDS011;59249;59.736;30.568;2023-07-13T05:45:35;5.93;;;2.22;;
71127;SDS011;59249;59.736;30.568;2023-07-13T05:48:04;7.15;;;1.73;;
71127;SDS011;59249;59.736;30.568;2023-07-13T05:50:33;8.63;;;2.25;;
71127;SDS011;59249;59.736;30.568;2023-07-13T05:53:05;7.90;;;2.50;;
71127;SDS011;59249;59.736;30.568;2023-07-13T05:55:34;8.23;;;2.63;;
71127;SDS011;59249;59.736;30.568;2023-07-13T05:58:04;10.50;;;4.20;;
71127;SDS011;59249;59.736;30.568;2023-07-13T06:00:32;14.70;;;6.15;;
71127;SDS011;59249;59.736;30.568;2023-07-13T06:03:01;10.98;;;4.05;;
71127;SDS011;59249;59.736;30.568;2023-07-13T06:05:32;6.75;;;2.33;;
71127;SDS011;59249;59.736;30.568;2023-07-13T06:08:02;4.90;;;1.63;;
71127;SDS011;59249;59.736;30.568;2023-07-13T06:10:32;14.05;;;4.47;;
71127;SDS011;59249;59.736;30.568;2023-07-13T06:13:01;10.45;;;3.15;;
71127;SDS011;59249;59.736;30.568;2023-07-13T06:15:32;10.43;;;3.95;;
71127;SDS011;59249;59.736;30.568;2023-07-13T06:18:01;13.73;;;5.53;;
71127;SDS011;59249;59.736;30.568;2023-07-13T06:20:29;15.50;;;5.03;;
71127;SDS011;59249;59.736;30.568;2023-07-13T06:23:01;20.45;;;6.63;;
71127;SDS011;59249;59.736;30.568;2023-07-13T06:25:30;9.77;;;3.67;;
71127;SDS011;59249;59.736;30.568;2023-07-13T06:28:03;8.50;;;3.42;;
71127;SDS011;59249;59.736;30.568;2023-07-13T06:30:32;6.15;;;1.38;;
71127;SDS011;59249;59.736;30.568;2023-07-13T06:33:01;4.87;;;1.13;;
71127;SDS011;59249;59.736;30.568;2023-07-13T06:35:30;5.00;;;1.30;;
71127;SDS011;59249;59.736;30.568;2023-07-13T06:37:59;3.83;;;1.33;;
71127;SDS011;59249;59.736;30.568;2023-07-13T06:40:29;7.78;;;1.30;;
71127;SDS011;59249;59.736;30.568;2023-07-13T06:42:58;6.18;;;1.15;;
71127;SDS011;59249;59.736;30.568;2023-07-13T06:45:32;6.40;;;1.40;;
71127;SDS011;59249;59.736;30.568;2023-07-13T06:48:03;2.92;;;0.75;;
71127;SDS011;59249;59.736;30.568;2023-07-13T06:50:32;5.22;;;2.13;;
71127;SDS011;59249;59.736;30.568;2023-07-13T06:53:02;6.95;;;1.33;;
71127;SDS011;59249;59.736;30.568;2023-07-13T06:55:31;6.07;;;1.55;;
71127;SDS011;59249;59.736;30.568;2023-07-13T06:57:59;6.43;;;1.33;;
71127;SDS011;59249;59.736;30.568;2023-07-13T07:00:28;6.88;;;1.30;;
71127;SDS011;59249;59.736;30.568;2023-07-13T07:03:01;5.63;;;1.40;;
71127;SDS011;59249;59.736;30.568;2023-07-13T07:05:30;7.05;;;1.33;;
71127;SDS011;59249;59.736;30.568;2023-07-13T07:08:01;6.97;;;1.30;;
71127;SDS011;59249;59.736;30.568;2023-07-13T07:10:31;4.80;;;1.27;;
71127;SDS011;59249;59.736;30.568;2023-07-13T07:13:01;5.70;;;1.38;;
71127;SDS011;59249;59.736;30.568;2023-07-13T07:15:31;8.20;;;1.73;;
71127;SDS011;59249;59.736;30.568;2023-07-13T07:18:04;5.40;;;1.90;;
71127;SDS011;59249;59.736;30.568;2023-07-13T07:20:35;13.13;;;1.50;;
71127;SDS011;59249;59.736;30.568;2023-07-13T07:23:04;6.83;;;1.60;;
71127;SDS011;59249;59.736;30.568;2023-07-13T07:25:33;8.07;;;1.75;;
71127;SDS011;59249;59.736;30.568;2023-07-13T07:28:03;7.03;;;2.20;;
71127;SDS011;59249;59.736;30.568;2023-07-13T07:30:41;10.50;;;2.50;;
71127;SDS011;59249;59.736;30.568;2023-07-13T07:33:13;5.07;;;1.45;;
71127;SDS011;59249;59.736;30.568;2023-07-13T07:35:44;5.97;;;1.97;;
71127;SDS011;59249;59.736;30.568;2023-07-13T07:38:32;6.18;;;1.85;;
71127;SDS011;59249;59.736;30.568;2023-07-13T07:41:02;6.65;;;2.33;;
71127;SDS011;59249;59.736;30.568;2023-07-13T07:43:35;11.60;;;2.95;;
71127;SDS011;59249;59.736;30.568;2023-07-13T07:46:06;10.25;;;1.63;;
71127;SDS011;59249;59.736;30.568;2023-07-13T07:48:35;9.43;;;2.67;;
71127;SDS011;59249;59.736;30.568;2023-07-13T07:51:04;9.95;;;2.90;;
71127;SDS011;59249;59.736;30.568;2023-07-13T07:53:32;8.85;;;2.90;;
71127;SDS011;59249;59.736;30.568;2023-07-13T07:56:01;7.82;;;2.95;;
71127;SDS011;59249;59.736;30.568;2023-07-13T07:58:50;6.53;;;2.38;;
71127;SDS011;59249;59.736;30.568;2023-07-13T08:01:25;11.27;;;3.40;;
71127;SDS011;59249;59.736;30.568;2023-07-13T08:03:57;8.43;;;3.35;;
71127;SDS011;59249;59.736;30.568;2023-07-13T08:06:32;8.80;;;2.88;;
71127;SDS011;59249;59.736;30.568;2023-07-13T08:09:04;5.93;;;2.20;;
71127;SDS011;59249;59.736;30.568;2023-07-13T08:11:33;7.75;;;2.05;;
71127;SDS011;59249;59.736;30.568;2023-07-13T08:14:07;7.13;;;2.00;;
71127;SDS011;59249;59.736;30.568;2023-07-13T08:16:38;7.53;;;1.70;;
71127;SDS011;59249;59.736;30.568;2023-07-13T08:19:07;8.68;;;2.10;;
71127;SDS011;59249;59.736;30.568;2023-07-13T08:21:36;8.00;;;2.00;;
71127;SDS011;59249;59.736;30.568;2023-07-13T08:24:05;5.13;;;2.00;;
71127;SDS011;59249;59.736;30.568;2023-07-13T08:26:35;6.43;;;1.53;;
71127;SDS011;59249;59.736;30.568;2023-07-13T08:29:04;6.78;;;1.75;;
71127;SDS011;59249;59.736;30.568;2023-07-13T08:31:33;6.05;;;1.90;;
71127;SDS011;59249;59.736;30.568;2023-07-13T08:34:06;8.23;;;1.73;;
71127;SDS011;59249;59.736;30.568;2023-07-13T08:36:35;5.28;;;1.67;;
71127;SDS011;59249;59.736;30.568;2023-07-13T08:39:04;7.30;;;1.83;;
71127;SDS011;59249;59.736;30.568;2023-07-13T08:41:35;5.55;;;1.27;;
71127;SDS011;59249;59.736;30.568;2023-07-13T08:44:07;3.70;;;1.35;;
71127;SDS011;59249;59.736;30.568;2023-07-13T08:46:48;7.45;;;1.48;;
71127;SDS011;59249;59.736;30.568;2023-07-13T08:49:23;4.63;;;1.35;;
71127;SDS011;59249;59.736;30.568;2023-07-13T08:51:57;6.00;;;1.37;;
71127;SDS011;59249;59.736;30.568;2023-07-13T08:54:34;6.28;;;1.30;;
71127;SDS011;59249;59.736;30.568;2023-07-13T08:57:09;5.80;;;1.40;;
71127;SDS011;59249;59.736;30.568;2023-07-13T08:59:42;4.13;;;1.20;;
71127;SDS011;59249;59.736;30.568;2023-07-13T09:02:21;5.05;;;1.40;;
71127;SDS011;59249;59.736;30.568;2023-07-13T09:04:58;5.70;;;1.33;;
71127;SDS011;59249;59.736;30.568;2023-07-13T09:07:35;5.57;;;1.38;;
71127;SDS011;59249;59.736;30.568;2023-07-13T09:10:25;3.30;;;1.10;;
71127;SDS011;59249;59.736;30.568;2023-07-13T09:13:01;3.08;;;1.00;;
71127;SDS011;59249;59.736;30.568;2023-07-13T09:15:48;4.10;;;1.15;;
71127;SDS011;59249;59.736;30.568;2023-07-13T09:18:19;8.23;;;1.87;;
71127;SDS011;59249;59.736;30.568;2023-07-13T09:20:58;3.70;;;1.00;;
71127;SDS011;59249;59.736;30.568;2023-07-13T09:23:34;4.10;;;1.60;;
71127;SDS011;59249;59.736;30.568;2023-07-13T09:26:05;3.28;;;1.20;;
71127;SDS011;59249;59.736;30.568;2023-07-13T09:28:43;5.03;;;1.63;;
71127;SDS011;59249;59.736;30.568;2023-07-13T09:31:17;4.60;;;1.20;;
71127;SDS011;59249;59.736;30.568;2023-07-13T09:33:54;4.25;;;1.20;;
71127;SDS011;59249;59.736;30.568;2023-07-13T09:36:29;3.70;;;1.27;;
71127;SDS011;59249;59.736;30.568;2023-07-13T09:39:02;5.07;;;1.17;;
71127;SDS011;59249;59.736;30.568;2023-07-13T09:41:42;3.60;;;1.02;;
71127;SDS011;59249;59.736;30.568;2023-07-13T09:44:27;4.57;;;1.40;;
71127;SDS011;59249;59.736;30.568;2023-07-13T09:46:59;4.68;;;1.15;;
71127;SDS011;59249;59.736;30.568;2023-07-13T09:49:29;5.97;;;1.80;;
71127;SDS011;59249;59.736;30.568;2023-07-13T09:52:06;7.03;;;1.70;;
71127;SDS011;59249;59.736;30.568;2023-07-13T09:54:44;6.53;;;1.80;;
71127;SDS011;59249;59.736;30.568;2023-07-13T09:57:18;4.70;;;1.60;;
71127;SDS011;59249;59.736;30.568;2023-07-13T10:00:18;5.80;;;1.67;;
71127;SDS011;59249;59.736;30.568;2023-07-13T10:02:58;5.38;;;1.25;;
71127;SDS011;59249;59.736;30.568;2023-07-13T10:05:39;4.65;;;1.20;;
71127;SDS011;59249;59.736;30.568;2023-07-13T10:08:19;5.50;;;1.40;;
71127;SDS011;59249;59.736;30.568;2023-07-13T10:10:52;4.23;;;1.23;;
71127;SDS011;59249;59.736;30.568;2023-07-13T10:13:26;5.05;;;1.30;;
71127;SDS011;59249;59.736;30.568;2023-07-13T10:16:01;5.03;;;1.17;;
71127;SDS011;59249;59.736;30.568;2023-07-13T10:18:38;7.53;;;2.00;;
71127;SDS011;59249;59.736;30.568;2023-07-13T10:21:14;4.57;;;1.20;;
71127;SDS011;59249;59.736;30.568;2023-07-13T10:24:05;5.03;;;1.20;;
71127;SDS011;59249;59.736;30.568;2023-07-13T10:26:46;7.28;;;1.45;;
71127;SDS011;59249;59.736;30.568;2023-07-13T10:29:25;4.78;;;1.20;;
71127;SDS011;59249;59.736;30.568;2023-07-13T10:31:57;4.90;;;1.60;;
71127;SDS011;59249;59.736;30.568;2023-07-13T10:34:28;5.30;;;1.73;;
71127;SDS011;59249;59.736;30.568;2023-07-13T10:36:58;6.10;;;1.40;;
71127;SDS011;59249;59.736;30.568;2023-07-13T10:39:30;4.88;;;1.52;;
71127;SDS011;59249;59.736;30.568;2023-07-13T10:42:01;4.05;;;1.10;;
71127;SDS011;59249;59.736;30.568;2023-07-13T10:44:34;5.38;;;1.35;;
71127;SDS011;59249;59.736;30.568;2023-07-13T10:47:04;3.92;;;1.40;;
71127;SDS011;59249;59.736;30.568;2023-07-13T10:49:41;4.93;;;1.43;;
71127;SDS011;59249;59.736;30.568;2023-07-13T10:55:37;6.85;;;1.48;;
71127;SDS011;59249;59.736;30.568;2023-07-13T10:58:14;6.65;;;1.17;;
71127;SDS011;59249;59.736;30.568;2023-07-13T11:00:48;8.77;;;1.83;;
71127;SDS011;59249;59.736;30.568;2023-07-13T11:03:31;6.57;;;1.00;;
71127;SDS011;59249;59.736;30.568;2023-07-13T11:06:09;4.00;;;0.90;;
71127;SDS011;59249;59.736;30.568;2023-07-13T11:08:51;9.98;;;1.40;;
71127;SDS011;59249;59.736;30.568;2023-07-13T11:11:34;6.97;;;1.35;;
71127;SDS011;59249;59.736;30.568;2023-07-13T11:16:59;5.57;;;1.20;;
71127;SDS011;59249;59.736;30.568;2023-07-13T11:20:23;8.30;;;1.30;;
71127;SDS011;59249;59.736;30.568;2023-07-13T11:23:19;3.88;;;1.30;;
71127;SDS011;59249;59.736;30.568;2023-07-13T11:25:58;5.97;;;1.35;;
71127;SDS011;59249;59.736;30.568;2023-07-13T11:28:31;7.40;;;1.42;;
71127;SDS011;59249;59.736;30.568;2023-07-13T11:31:01;4.80;;;1.13;;
71127;SDS011;59249;59.736;30.568;2023-07-13T11:33:48;6.00;;;1.45;;
71127;SDS011;59249;59.736;30.568;2023-07-13T11:36:36;3.70;;;1.13;;
71127;SDS011;59249;59.736;30.568;2023-07-13T11:39:16;5.85;;;1.13;;
71127;SDS011;59249;59.736;30.568;2023-07-13T11:41:51;6.38;;;1.20;;
71127;SDS011;59249;59.736;30.568;2023-07-13T11:44:28;4.00;;;1.03;;
71127;SDS011;59249;59.736;30.568;2023-07-13T11:46:58;2.83;;;0.90;;
71127;SDS011;59249;59.736;30.568;2023-07-13T11:49:41;3.00;;;1.20;;
71127;SDS011;59249;59.736;30.568;2023-07-13T11:52:14;6.70;;;1.38;;
71127;SDS011;59249;59.736;30.568;2023-07-13T11:54:48;4.03;;;1.30;;
71127;SDS011;59249;59.736;30.568;2023-07-13T11:57:26;3.17;;;1.20;;
71127;SDS011;59249;59.736;30.568;2023-07-13T12:00:02;3.45;;;1.20;;
71127;SDS011;59249;59.736;30.568;2023-07-13T12:02:45;3.45;;;1.00;;
71127;SDS011;59249;59.736;30.568;2023-07-13T12:05:20;6.63;;;1.95;;
71127;SDS011;59249;59.736;30.568;2023-07-13T12:07:49;4.65;;;1.80;;
71127;SDS011;59249;59.736;30.568;2023-07-13T12:10:21;4.20;;;1.20;;
71127;SDS011;59249;59.736;30.568;2023-07-13T12:12:53;4.55;;;1.38;;
71127;SDS011;59249;59.736;30.568;2023-07-13T12:15:28;6.82;;;2.00;;
71127;SDS011;59249;59.736;30.568;2023-07-13T12:18:11;3.38;;;1.33;;
71127;SDS011;59249;59.736;30.568;2023-07-13T12:20:44;3.50;;;1.27;;
71127;SDS011;59249;59.736;30.568;2023-07-13T12:23:19;4.87;;;1.23;;
71127;SDS011;59249;59.736;30.568;2023-07-13T12:25:52;3.25;;;1.10;;
71127;SDS011;59249;59.736;30.568;2023-07-13T12:28:22;3.10;;;1.17;;
71127;SDS011;59249;59.736;30.568;2023-07-13T12:31:05;4.32;;;1.13;;
71127;SDS011;59249;59.736;30.568;2023-07-13T12:33:57;3.97;;;1.20;;
71127;SDS011;59249;59.736;30.568;2023-07-13T12:36:31;4.93;;;1.30;;
71127;SDS011;59249;59.736;30.568;2023-07-13T12:39:13;5.55;;;1.60;;
71127;SDS011;59249;59.736;30.568;2023-07-13T12:41:46;8.18;;;1.60;;
71127;SDS011;59249;59.736;30.568;2023-07-13T12:44:18;9.32;;;2.38;;
71127;SDS011;59249;59.736;30.568;2023-07-13T12:47:04;5.18;;;2.75;;
71127;SDS011;59249;59.736;30.568;2023-07-13T12:49:41;7.00;;;1.50;;
71127;SDS011;59249;59.736;30.568;2023-07-13T12:52:17;7.25;;;1.70;;
71127;SDS011;59249;59.736;30.568;2023-07-13T12:54:54;5.68;;;1.80;;
71127;SDS011;59249;59.736;30.568;2023-07-13T12:57:37;7.00;;;2.25;;
71127;SDS011;59249;59.736;30.568;2023-07-13T13:00:18;4.97;;;1.95;;
71127;SDS011;59249;59.736;30.568;2023-07-13T13:02:56;3.57;;;1.40;;
71127;SDS011;59249;59.736;30.568;2023-07-13T13:05:57;5.18;;;1.70;;
71127;SDS011;59249;59.736;30.568;2023-07-13T13:08:34;4.85;;;1.60;;
71127;SDS011;59249;59.736;30.568;2023-07-13T13:11:04;4.13;;;1.58;;
71127;SDS011;59249;59.736;30.568;2023-07-13T13:13:33;3.47;;;1.50;;
71127;SDS011;59249;59.736;30.568;2023-07-13T13:16:07;4.57;;;1.60;;
71127;SDS011;59249;59.736;30.568;2023-07-13T13:18:50;5.50;;;1.88;;
71127;SDS011;59249;59.736;30.568;2023-07-13T13:21:22;4.05;;;1.40;;
71127;SDS011;59249;59.736;30.568;2023-07-13T13:23:53;5.10;;;1.70;;
71127;SDS011;59249;59.736;30.568;2023-07-13T13:26:22;5.35;;;1.40;;
71127;SDS011;59249;59.736;30.568;2023-07-13T13:28:51;7.37;;;1.87;;
71127;SDS011;59249;59.736;30.568;2023-07-13T13:31:20;7.85;;;2.00;;
71127;SDS011;59249;59.736;30.568;2023-07-13T13:33:50;4.28;;;1.85;;
71127;SDS011;59249;59.736;30.568;2023-07-13T13:36:20;9.15;;;1.65;;
71127;SDS011;59249;59.736;30.568;2023-07-13T13:38:51;7.40;;;2.05;;
71127;SDS011;59249;59.736;30.568;2023-07-13T13:41:20;6.17;;;1.73;;
71127;SDS011;59249;59.736;30.568;2023-07-13T13:43:49;6.90;;;2.20;;
71127;SDS011;59249;59.736;30.568;2023-07-13T13:46:19;5.57;;;1.70;;
71127;SDS011;59249;59.736;30.568;2023-07-13T13:48:57;4.60;;;1.40;;
71127;SDS011;59249;59.736;30.568;2023-07-13T13:51:25;5.15;;;1.60;;
71127;SDS011;59249;59.736;30.568;2023-07-13T13:53:54;2.13;;;1.07;;
71127;SDS011;59249;59.736;30.568;2023-07-13T13:56:24;5.35;;;1.88;;
71127;SDS011;59249;59.736;30.568;2023-07-13T13:58:53;7.47;;;1.85;;
71127;SDS011;59249;59.736;30.568;2023-07-13T14:01:21;5.20;;;1.88;;
71127;SDS011;59249;59.736;30.568;2023-07-13T14:03:51;4.75;;;1.63;;
71127;SDS011;59249;59.736;30.568;2023-07-13T14:06:21;5.13;;;1.80;;
71127;SDS011;59249;59.736;30.568;2023-07-13T14:08:50;6.18;;;1.30;;
71127;SDS011;59249;59.736;30.568;2023-07-13T14:11:20;4.38;;;1.40;;
71127;SDS011;59249;59.736;30.568;2023-07-13T14:13:49;5.90;;;1.92;;
71127;SDS011;59249;59.736;30.568;2023-07-13T14:16:22;6.90;;;1.80;;
71127;SDS011;59249;59.736;30.568;2023-07-13T14:18:58;8.03;;;2.03;;
71127;SDS011;59249;59.736;30.568;2023-07-13T14:21:29;3.88;;;1.55;;
71127;SDS011;59249;59.736;30.568;2023-07-13T14:23:58;4.57;;;1.50;;
71127;SDS011;59249;59.736;30.568;2023-07-13T14:26:26;3.60;;;1.30;;
71127;SDS011;59249;59.736;30.568;2023-07-13T14:29:10;6.80;;;1.50;;
71127;SDS011;59249;59.736;30.568;2023-07-13T14:31:45;6.77;;;1.70;;
71127;SDS011;59249;59.736;30.568;2023-07-13T14:34:15;9.43;;;2.13;;
71127;SDS011;59249;59.736;30.568;2023-07-13T14:36:47;6.63;;;2.88;;
71127;SDS011;59249;59.736;30.568;2023-07-13T14:39:18;6.72;;;2.03;;
71127;SDS011;59249;59.736;30.568;2023-07-13T14:41:49;4.93;;;1.90;;
71127;SDS011;59249;59.736;30.568;2023-07-13T14:44:20;3.70;;;1.80;;
71127;SDS011;59249;59.736;30.568;2023-07-13T14:46:52;5.88;;;1.42;;
71127;SDS011;59249;59.736;30.568;2023-07-13T14:49:24;4.43;;;1.70;;
71127;SDS011;59249;59.736;30.568;2023-07-13T14:52:05;9.88;;;1.90;;
71127;SDS011;59249;59.736;30.568;2023-07-13T14:54:44;5.07;;;2.15;;
71127;SDS011;59249;59.736;30.568;2023-07-13T14:57:16;4.53;;;1.50;;
71127;SDS011;59249;59.736;30.568;2023-07-13T14:59:48;11.43;;;2.40;;
71127;SDS011;59249;59.736;30.568;2023-07-13T15:02:19;4.95;;;2.03;;
71127;SDS011;59249;59.736;30.568;2023-07-13T15:04:56;4.40;;;1.58;;
71127;SDS011;59249;59.736;30.568;2023-07-13T15:07:26;5.18;;;2.08;;
71127;SDS011;59249;59.736;30.568;2023-07-13T15:09:55;6.27;;;2.13;;
71127;SDS011;59249;59.736;30.568;2023-07-13T15:12:24;4.40;;;1.48;;